sensor_id;sensor_type;location;lat;lon;timestamp;pressure;altitude;pressure_sealevel;temperature;humidity
66703;BME280;60933;46.398;-63.798;2022-10-31T00:01:44;101723.81;;;10.62;68.43
66703;BME280;60933;46.398;-63.798;2022-10-31T00:04:10;101719.47;;;10.67;66.88
66703;BME280;60933;46.398;-63.798;2022-10-31T00:06:36;101720.31;;;10.69;68.67
66703;BME280;60933;46.398;-63.798;2022-10-31T00:09:03;101713.44;;;10.70;68.17
66703;BME280;60933;46.398;-63.798;2022-10-31T00:11:30;101713.38;;;10.74;67.19
66703;BME280;60933;46.398;-63.798;2022-10-31T00:13:59;101707.31;;;10.79;67.56
66703;BME280;60933;46.398;-63.798;2022-10-31T00:16:26;101713.28;;;10.82;67.58
66703;BME280;60933;46.398;-63.798;2022-10-31T00:18:55;101711.53;;;10.86;66.41
66703;BME280;60933;46.398;-63.798;2022-10-31T00:21:22;101708.09;;;10.87;67.84
66703;BME280;60933;46.398;-63.798;2022-10-31T00:23:48;101718.41;;;10.87;69.81
66703;BME280;60933;46.398;-63.798;2022-10-31T00:26:14;101707.25;;;10.86;68.26
66703;BME280;60933;46.398;-63.798;2022-10-31T00:28:41;101706.41;;;10.84;69.61
66703;BME280;60933;46.398;-63.798;2022-10-31T00:31:09;101710.72;;;10.82;67.59
66703;BME280;60933;46.398;-63.798;2022-10-31T00:33:38;101703.84;;;10.81;69.00
66703;BME280;60933;46.398;-63.798;2022-10-31T00:36:05;101705.59;;;10.77;67.23
66703;BME280;60933;46.398;-63.798;2022-10-31T00:38:32;101713.38;;;10.74;67.67
66703;BME280;60933;46.398;-63.798;2022-10-31T00:40:59;101713.44;;;10.70;66.96
66703;BME280;60933;46.398;-63.798;2022-10-31T00:43:25;101710.88;;;10.67;66.33
66703;BME280;60933;46.398;-63.798;2022-10-31T00:45:51;101717.75;;;10.68;71.37
66703;BME280;60933;46.398;-63.798;2022-10-31T00:48:17;101712.66;;;10.61;69.76
66703;BME280;60933;46.398;-63.798;2022-10-31T00:50:43;101716.13;;;10.57;70.37
66703;BME280;60933;46.398;-63.798;2022-10-31T00:53:09;101712.75;;;10.51;70.29
66703;BME280;60933;46.398;-63.798;2022-10-31T00:55:35;101710.22;;;10.44;72.80
66703;BME280;60933;46.398;-63.798;2022-10-31T00:58:01;101700.81;;;10.39;73.28
66703;BME280;60933;46.398;-63.798;2022-10-31T01:00:27;101712.84;;;10.38;71.85
66703;BME280;60933;46.398;-63.798;2022-10-31T01:02:53;101712.84;;;10.37;70.47
66703;BME280;60933;46.398;-63.798;2022-10-31T01:05:19;101703.38;;;10.34;68.82
66703;BME280;60933;46.398;-63.798;2022-10-31T01:07:45;101709.41;;;10.33;71.84
66703;BME280;60933;46.398;-63.798;2022-10-31T01:10:12;101712.03;;;10.30;70.55
66703;BME280;60933;46.398;-63.798;2022-10-31T01:12:43;101714.59;;;10.28;73.24
66703;BME280;60933;46.398;-63.798;2022-10-31T01:15:11;101709.50;;;10.25;72.80
66703;BME280;60933;46.398;-63.798;2022-10-31T01:17:38;101706.91;;;10.24;71.35
66703;BME280;60933;46.398;-63.798;2022-10-31T01:20:06;101718.09;;;10.24;73.40
66703;BME280;60933;46.398;-63.798;2022-10-31T01:22:33;101713.81;;;10.23;72.85
66703;BME280;60933;46.398;-63.798;2022-10-31T01:24:59;101711.22;;;10.20;72.92
66703;BME280;60933;46.398;-63.798;2022-10-31T01:27:25;101709.53;;;10.18;71.95
66703;BME280;60933;46.398;-63.798;2022-10-31T01:29:52;101713.03;;;10.13;72.52
66703;BME280;60933;46.398;-63.798;2022-10-31T01:32:18;101713.06;;;10.09;72.03
66703;BME280;60933;46.398;-63.798;2022-10-31T01:34:44;101708.78;;;10.06;71.65
66703;BME280;60933;46.398;-63.798;2022-10-31T01:37:10;101702.78;;;10.00;71.27
66703;BME280;60933;46.398;-63.798;2022-10-31T01:39:36;101711.38;;;10.03;71.30
66703;BME280;60933;46.398;-63.798;2022-10-31T01:42:02;101704.50;;;10.02;69.73
66703;BME280;60933;46.398;-63.798;2022-10-31T01:47:07;101705.31;;;10.09;70.84
66703;BME280;60933;46.398;-63.798;2022-10-31T01:49:41;101707.88;;;10.10;71.72
66703;BME280;60933;46.398;-63.798;2022-10-31T01:52:10;101706.16;;;10.11;69.40
66703;BME280;60933;46.398;-63.798;2022-10-31T01:54:42;101711.31;;;10.11;71.11
66703;BME280;60933;46.398;-63.798;2022-10-31T01:57:12;101696.69;;;10.08;72.92
66703;BME280;60933;46.398;-63.798;2022-10-31T01:59:46;101701.00;;;10.11;75.42
66703;BME280;60933;46.398;-63.798;2022-10-31T02:02:15;101694.13;;;10.10;71.61
66703;BME280;60933;46.398;-63.798;2022-10-31T02:04:43;101694.97;;;10.13;73.75
66703;BME280;60933;46.398;-63.798;2022-10-31T02:07:13;101694.94;;;10.15;72.54
66703;BME280;60933;46.398;-63.798;2022-10-31T02:09:42;101694.94;;;10.18;71.22
66703;BME280;60933;46.398;-63.798;2022-10-31T02:12:10;101693.19;;;10.19;72.09
66703;BME280;60933;46.398;-63.798;2022-10-31T02:14:37;101696.63;;;10.18;70.10
66703;BME280;60933;46.398;-63.798;2022-10-31T02:17:04;101700.91;;;10.20;76.02
66703;BME280;60933;46.398;-63.798;2022-10-31T02:19:42;101694.94;;;10.18;73.03
66703;BME280;60933;46.398;-63.798;2022-10-31T02:33:43;101686.28;;;10.22;69.78
66703;BME280;60933;46.398;-63.798;2022-10-31T02:39:06;101681.06;;;10.32;71.33
66703;BME280;60933;46.398;-63.798;2022-10-31T02:44:49;101676.72;;;10.40;72.19
66703;BME280;60933;46.398;-63.798;2022-10-31T02:47:21;101669.81;;;10.36;71.22
66703;BME280;60933;46.398;-63.798;2022-10-31T02:49:56;101681.88;;;10.37;72.20
66703;BME280;60933;46.398;-63.798;2022-10-31T02:52:29;101681.03;;;10.33;73.92
66703;BME280;60933;46.398;-63.798;2022-10-31T02:54:56;101670.75;;;10.28;71.74
66703;BME280;60933;46.398;-63.798;2022-10-31T02:57:25;101675.03;;;10.29;71.26
66703;BME280;60933;46.398;-63.798;2022-10-31T02:59:56;101668.16;;;10.30;72.09
66703;BME280;60933;46.398;-63.798;2022-10-31T03:02:36;101666.41;;;10.34;71.13
66703;BME280;60933;46.398;-63.798;2022-10-31T03:15:45;101667.34;;;10.26;71.72
66703;BME280;60933;46.398;-63.798;2022-10-31T03:18:31;101659.63;;;10.20;71.52
66703;BME280;60933;46.398;-63.798;2022-10-31T03:21:06;101663.94;;;10.23;72.17
66703;BME280;60933;46.398;-63.798;2022-10-31T03:23:35;101668.25;;;10.18;74.81
66703;BME280;60933;46.398;-63.798;2022-10-31T03:26:05;101654.53;;;10.14;75.95
66703;BME280;60933;46.398;-63.798;2022-10-31T03:29:24;101645.13;;;10.07;73.00
66703;BME280;60933;46.398;-63.798;2022-10-31T03:31:28;101654.59;;;10.08;73.75
66703;BME280;60933;46.398;-63.798;2022-10-31T03:33:59;101639.09;;;10.09;71.61
66703;BME280;60933;46.398;-63.798;2022-10-31T03:36:27;101639.91;;;10.13;71.84
66703;BME280;60933;46.398;-63.798;2022-10-31T03:38:57;101637.31;;;10.16;73.39
66703;BME280;60933;46.398;-63.798;2022-10-31T03:41:28;101641.63;;;10.14;73.43
66703;BME280;60933;46.398;-63.798;2022-10-31T03:43:59;101645.06;;;10.13;73.07
66703;BME280;60933;46.398;-63.798;2022-10-31T03:46:27;101645.94;;;10.12;73.40
66703;BME280;60933;46.398;-63.798;2022-10-31T03:48:54;101623.63;;;10.05;72.40
66703;BME280;60933;46.398;-63.798;2022-10-31T03:51:35;101639.03;;;10.17;71.63
66703;BME280;60933;46.398;-63.798;2022-10-31T03:54:08;101639.84;;;10.19;72.26
66703;BME280;60933;46.398;-63.798;2022-10-31T03:56:50;101619.28;;;10.13;72.51
66703;BME280;60933;46.398;-63.798;2022-10-31T03:59:33;101630.44;;;10.18;72.76
66703;BME280;60933;46.398;-63.798;2022-10-31T04:02:07;101629.56;;;10.18;71.99
66703;BME280;60933;46.398;-63.798;2022-10-31T04:04:35;101627.84;;;10.18;73.93
66703;BME280;60933;46.398;-63.798;2022-10-31T04:07:03;101626.09;;;10.20;71.56
66703;BME280;60933;46.398;-63.798;2022-10-31T04:09:32;101625.28;;;10.15;72.16
66703;BME280;60933;46.398;-63.798;2022-10-31T04:12:00;101627.88;;;10.13;72.10
66703;BME280;60933;46.398;-63.798;2022-10-31T04:14:31;101628.69;;;10.19;71.13
66703;BME280;60933;46.398;-63.798;2022-10-31T04:16:59;101616.63;;;10.19;72.00
66703;BME280;60933;46.398;-63.798;2022-10-31T04:19:25;101614.06;;;10.21;71.82
66703;BME280;60933;46.398;-63.798;2022-10-31T04:21:51;101616.63;;;10.19;71.79
66703;BME280;60933;46.398;-63.798;2022-10-31T04:24:17;101613.19;;;10.22;71.15
66703;BME280;60933;46.398;-63.798;2022-10-31T04:26:43;101607.19;;;10.20;71.53
66703;BME280;60933;46.398;-63.798;2022-10-31T04:29:09;101595.13;;;10.20;72.13
66703;BME280;60933;46.398;-63.798;2022-10-31T04:31:35;101613.25;;;10.14;71.10
66703;BME280;60933;46.398;-63.798;2022-10-31T04:34:01;101603.84;;;10.07;72.36
66703;BME280;60933;46.398;-63.798;2022-10-31T04:36:28;101603.06;;;9.98;70.94
66703;BME280;60933;46.398;-63.798;2022-10-31T04:38:54;101613.41;;;9.95;71.26
66703;BME280;60933;46.398;-63.798;2022-10-31T04:41:20;101617.75;;;9.92;71.67
66703;BME280;60933;46.398;-63.798;2022-10-31T04:43:46;101604.00;;;9.87;72.09
66703;BME280;60933;46.398;-63.798;2022-10-31T04:46:12;101610.06;;;9.81;73.94
66703;BME280;60933;46.398;-63.798;2022-10-31T04:48:38;101613.59;;;9.72;73.40
66703;BME280;60933;46.398;-63.798;2022-10-31T04:51:04;101613.63;;;9.68;74.44
66703;BME280;60933;46.398;-63.798;2022-10-31T04:53:30;101605.91;;;9.66;71.36
66703;BME280;60933;46.398;-63.798;2022-10-31T04:55:58;101607.59;;;9.65;71.49
66703;BME280;60933;46.398;-63.798;2022-10-31T04:58:25;101598.19;;;9.61;71.92
66703;BME280;60933;46.398;-63.798;2022-10-31T05:00:52;101603.34;;;9.58;72.73
66703;BME280;60933;46.398;-63.798;2022-10-31T05:03:18;101599.97;;;9.53;73.25
66703;BME280;60933;46.398;-63.798;2022-10-31T05:05:45;101611.16;;;9.54;73.75
66703;BME280;60933;46.398;-63.798;2022-10-31T05:08:11;101605.16;;;9.52;72.37
66703;BME280;60933;46.398;-63.798;2022-10-31T05:10:37;101603.44;;;9.49;72.86
66703;BME280;60933;46.398;-63.798;2022-10-31T05:13:03;101600.84;;;9.50;73.34
66703;BME280;60933;46.398;-63.798;2022-10-31T05:15:30;101602.63;;;9.45;73.62
66703;BME280;60933;46.398;-63.798;2022-10-31T05:17:56;101598.31;;;9.41;72.60
66703;BME280;60933;46.398;-63.798;2022-10-31T05:20:26;101588.03;;;9.37;73.40
66703;BME280;60933;46.398;-63.798;2022-10-31T05:22:54;101573.50;;;9.31;73.20
66703;BME280;60933;46.398;-63.798;2022-10-31T05:25:22;101576.06;;;9.31;73.00
66703;BME280;60933;46.398;-63.798;2022-10-31T05:27:50;101582.94;;;9.27;74.60
66703;BME280;60933;46.398;-63.798;2022-10-31T05:30:20;101583.84;;;9.23;73.67
66703;BME280;60933;46.398;-63.798;2022-10-31T05:32:48;101589.88;;;9.19;73.95
66703;BME280;60933;46.398;-63.798;2022-10-31T05:35:26;101585.59;;;9.15;74.73
66703;BME280;60933;46.398;-63.798;2022-10-31T05:37:53;101581.34;;;9.11;74.17
66703;BME280;60933;46.398;-63.798;2022-10-31T05:40:19;101581.31;;;9.09;71.97
66703;BME280;60933;46.398;-63.798;2022-10-31T05:42:46;101581.34;;;9.11;71.60
66703;BME280;60933;46.398;-63.798;2022-10-31T05:45:15;101587.31;;;9.16;73.03
66703;BME280;60933;46.398;-63.798;2022-10-31T05:47:42;101585.56;;;9.16;71.90
66703;BME280;60933;46.398;-63.798;2022-10-31T05:50:09;101582.16;;;9.16;73.02
66703;BME280;60933;46.398;-63.798;2022-10-31T05:52:35;101577.88;;;9.15;73.41
66703;BME280;60933;46.398;-63.798;2022-10-31T05:55:02;101577.91;;;9.09;73.67
66703;BME280;60933;46.398;-63.798;2022-10-31T05:57:29;101577.00;;;9.13;72.88
66703;BME280;60933;46.398;-63.798;2022-10-31T05:59:57;101574.44;;;9.11;75.01
66703;BME280;60933;46.398;-63.798;2022-10-31T06:02:23;101570.16;;;9.10;73.57
66703;BME280;60933;46.398;-63.798;2022-10-31T06:04:49;101566.72;;;9.11;73.33
66703;BME280;60933;46.398;-63.798;2022-10-31T06:07:15;101568.44;;;9.12;72.60
66703;BME280;60933;46.398;-63.798;2022-10-31T06:09:41;101562.44;;;9.09;73.67
66703;BME280;60933;46.398;-63.798;2022-10-31T06:12:07;101553.00;;;9.12;75.13
66703;BME280;60933;46.398;-63.798;2022-10-31T06:14:33;101559.00;;;9.10;73.96
66703;BME280;60933;46.398;-63.798;2022-10-31T06:16:59;101546.97;;;9.10;74.06
66703;BME280;60933;46.398;-63.798;2022-10-31T06:19:25;101548.69;;;9.13;73.92
66703;BME280;60933;46.398;-63.798;2022-10-31T06:21:51;101547.84;;;9.12;74.08
66703;BME280;60933;46.398;-63.798;2022-10-31T06:24:17;101553.00;;;9.11;75.21
66703;BME280;60933;46.398;-63.798;2022-10-31T06:26:43;101544.44;;;9.06;74.52
66703;BME280;60933;46.398;-63.798;2022-10-31T06:29:09;101538.41;;;9.07;73.66
66703;BME280;60933;46.398;-63.798;2022-10-31T06:31:35;101533.25;;;9.10;73.50
66703;BME280;60933;46.398;-63.798;2022-10-31T06:34:01;101547.78;;;9.20;73.11
66703;BME280;60933;46.398;-63.798;2022-10-31T06:36:27;101543.47;;;9.22;75.52
66703;BME280;60933;46.398;-63.798;2022-10-31T06:38:53;101545.22;;;9.22;74.63
66703;BME280;60933;46.398;-63.798;2022-10-31T06:41:19;101533.16;;;9.22;75.50
66703;BME280;60933;46.398;-63.798;2022-10-31T06:43:48;101532.34;;;9.18;75.21
66703;BME280;60933;46.398;-63.798;2022-10-31T06:46:14;101524.66;;;9.15;75.04
66703;BME280;60933;46.398;-63.798;2022-10-31T06:48:41;101519.53;;;9.11;74.14
66703;BME280;60933;46.398;-63.798;2022-10-31T06:51:07;101524.69;;;9.11;74.09
66703;BME280;60933;46.398;-63.798;2022-10-31T06:53:33;101528.09;;;9.11;73.87
66703;BME280;60933;46.398;-63.798;2022-10-31T06:55:59;101521.25;;;9.12;76.35
66703;BME280;60933;46.398;-63.798;2022-10-31T06:58:25;101503.25;;;9.04;74.23
66703;BME280;60933;46.398;-63.798;2022-10-31T07:00:51;101511.78;;;9.12;74.30
66703;BME280;60933;46.398;-63.798;2022-10-31T07:03:17;101508.38;;;9.09;75.59
66703;BME280;60933;46.398;-63.798;2022-10-31T07:05:45;101505.78;;;9.10;73.18
66703;BME280;60933;46.398;-63.798;2022-10-31T07:08:13;101517.78;;;9.11;74.30
66703;BME280;60933;46.398;-63.798;2022-10-31T07:10:41;101516.09;;;9.09;75.74
66703;BME280;60933;46.398;-63.798;2022-10-31T07:13:13;101510.94;;;9.06;73.80
66703;BME280;60933;46.398;-63.798;2022-10-31T07:15:40;101506.66;;;9.05;75.16
66703;BME280;60933;46.398;-63.798;2022-10-31T07:18:09;101504.97;;;9.00;75.47
66703;BME280;60933;46.398;-63.798;2022-10-31T07:20:36;101504.13;;;8.98;74.04
66703;BME280;60933;46.398;-63.798;2022-10-31T07:23:02;101489.56;;;8.94;73.97
66703;BME280;60933;46.398;-63.798;2022-10-31T07:25:28;101496.44;;;8.95;75.43
66703;BME280;60933;46.398;-63.798;2022-10-31T07:27:55;101493.84;;;8.97;74.36
66703;BME280;60933;46.398;-63.798;2022-10-31T07:30:21;101493.81;;;9.01;73.90
66703;BME280;60933;46.398;-63.798;2022-10-31T07:32:49;101484.34;;;9.05;74.93
66703;BME280;60933;46.398;-63.798;2022-10-31T07:35:17;101488.63;;;9.08;74.27
66703;BME280;60933;46.398;-63.798;2022-10-31T07:37:43;101484.28;;;9.13;73.01
66703;BME280;60933;46.398;-63.798;2022-10-31T07:40:10;101481.69;;;9.16;74.50
66703;BME280;60933;46.398;-63.798;2022-10-31T07:42:38;101485.13;;;9.15;73.64
66703;BME280;60933;46.398;-63.798;2022-10-31T07:45:06;101491.09;;;9.20;72.89
66703;BME280;60933;46.398;-63.798;2022-10-31T07:47:43;101478.19;;;9.26;73.20
66703;BME280;60933;46.398;-63.798;2022-10-31T07:50:12;101484.13;;;9.33;73.30
66703;BME280;60933;46.398;-63.798;2022-10-31T07:52:39;101481.59;;;9.31;73.09
66703;BME280;60933;46.398;-63.798;2022-10-31T07:55:05;101475.56;;;9.32;73.00
66703;BME280;60933;46.398;-63.798;2022-10-31T07:57:32;101484.97;;;9.37;72.71
66703;BME280;60933;46.398;-63.798;2022-10-31T07:59:58;101485.84;;;9.37;73.19
66703;BME280;60933;46.398;-63.798;2022-10-31T08:02:25;101481.53;;;9.38;73.21
66703;BME280;60933;46.398;-63.798;2022-10-31T08:04:51;101474.72;;;9.33;73.79
66703;BME280;60933;46.398;-63.798;2022-10-31T08:07:17;101478.97;;;9.36;73.27
66703;BME280;60933;46.398;-63.798;2022-10-31T08:09:43;101471.22;;;9.39;72.93
66703;BME280;60933;46.398;-63.798;2022-10-31T08:12:09;101472.88;;;9.48;72.83
66703;BME280;60933;46.398;-63.798;2022-10-31T08:14:35;101481.34;;;9.59;72.78
66703;BME280;60933;46.398;-63.798;2022-10-31T08:17:01;101470.16;;;9.63;72.18
66703;BME280;60933;46.398;-63.798;2022-10-31T08:19:27;101476.13;;;9.69;72.36
66703;BME280;60933;46.398;-63.798;2022-10-31T08:21:53;101482.91;;;9.76;71.89
66703;BME280;60933;46.398;-63.798;2022-10-31T08:24:21;101473.47;;;9.76;71.41
66703;BME280;60933;46.398;-63.798;2022-10-31T08:26:47;101462.28;;;9.76;71.59
66703;BME280;60933;46.398;-63.798;2022-10-31T08:29:13;101468.34;;;9.73;71.91
66703;BME280;60933;46.398;-63.798;2022-10-31T08:31:41;101458.88;;;9.74;71.51
66703;BME280;60933;46.398;-63.798;2022-10-31T08:34:07;101470.06;;;9.71;71.51
66703;BME280;60933;46.398;-63.798;2022-10-31T08:36:33;101458.09;;;9.64;71.58
66703;BME280;60933;46.398;-63.798;2022-10-31T08:38:59;101452.94;;;9.67;71.57
66703;BME280;60933;46.398;-63.798;2022-10-31T08:41:26;101454.66;;;9.65;72.46
66703;BME280;60933;46.398;-63.798;2022-10-31T08:43:52;101444.34;;;9.68;72.00
66703;BME280;60933;46.398;-63.798;2022-10-31T08:46:18;101448.53;;;9.77;72.39
66703;BME280;60933;46.398;-63.798;2022-10-31T08:48:44;101451.09;;;9.78;72.37
66703;BME280;60933;46.398;-63.798;2022-10-31T08:51:10;101445.97;;;9.75;72.59
66703;BME280;60933;46.398;-63.798;2022-10-31T08:53:37;101439.94;;;9.75;72.55
66703;BME280;60933;46.398;-63.798;2022-10-31T08:56:03;101445.03;;;9.81;72.09
66703;BME280;60933;46.398;-63.798;2022-10-31T08:58:29;101440.75;;;9.81;72.76
66703;BME280;60933;46.398;-63.798;2022-10-31T09:00:55;101431.28;;;9.82;72.12
66703;BME280;60933;46.398;-63.798;2022-10-31T09:03:26;101424.38;;;9.87;72.79
66703;BME280;60933;46.398;-63.798;2022-10-31T09:05:57;101431.25;;;9.88;72.81
66703;BME280;60933;46.398;-63.798;2022-10-31T09:08:25;101426.94;;;9.86;73.03
66703;BME280;60933;46.398;-63.798;2022-10-31T09:10:51;101422.66;;;9.86;72.48
66703;BME280;60933;46.398;-63.798;2022-10-31T09:13:19;101416.59;;;9.89;73.31
66703;BME280;60933;46.398;-63.798;2022-10-31T09:15:48;101426.09;;;9.88;74.02
66703;BME280;60933;46.398;-63.798;2022-10-31T09:18:16;101414.06;;;9.87;73.26
66703;BME280;60933;46.398;-63.798;2022-10-31T09:20:44;101413.19;;;9.88;73.54
66703;BME280;60933;46.398;-63.798;2022-10-31T09:23:16;101412.31;;;9.88;73.38
66703;BME280;60933;46.398;-63.798;2022-10-31T09:25:43;101408.91;;;9.87;72.86
66703;BME280;60933;46.398;-63.798;2022-10-31T09:28:11;101405.44;;;9.90;72.82
66703;BME280;60933;46.398;-63.798;2022-10-31T09:30:38;101413.97;;;9.93;73.24
66703;BME280;60933;46.398;-63.798;2022-10-31T09:33:11;101411.41;;;9.93;72.72
66703;BME280;60933;46.398;-63.798;2022-10-31T09:35:38;101401.97;;;9.92;72.70
66703;BME280;60933;46.398;-63.798;2022-10-31T09:38:10;101419.19;;;9.89;74.09
66703;BME280;60933;46.398;-63.798;2022-10-31T09:40:45;101418.38;;;9.82;74.32
66703;BME280;60933;46.398;-63.798;2022-10-31T09:43:57;101412.41;;;9.78;74.01
66703;BME280;60933;46.398;-63.798;2022-10-31T09:46:52;101415.88;;;9.76;74.00
66703;BME280;60933;46.398;-63.798;2022-10-31T09:52:24;101393.59;;;9.72;73.64
66703;BME280;60933;46.398;-63.798;2022-10-31T09:54:57;101400.41;;;9.79;73.58
66703;BME280;60933;46.398;-63.798;2022-10-31T09:57:28;101405.56;;;9.79;73.03
66703;BME280;60933;46.398;-63.798;2022-10-31T09:59:56;101394.41;;;9.75;73.77
66703;BME280;60933;46.398;-63.798;2022-10-31T10:05:22;101406.47;;;9.73;73.69
66703;BME280;60933;46.398;-63.798;2022-10-31T10:10:49;101403.06;;;9.70;74.07
66703;BME280;60933;46.398;-63.798;2022-10-31T10:24:44;101410.94;;;9.56;71.50
66703;BME280;60933;46.398;-63.798;2022-10-31T10:30:13;101403.19;;;9.56;71.40
66703;BME280;60933;46.398;-63.798;2022-10-31T10:32:45;101406.66;;;9.53;71.32
66703;BME280;60933;46.398;-63.798;2022-10-31T10:35:34;101411.88;;;9.50;71.43
66703;BME280;60933;46.398;-63.798;2022-10-31T10:40:33;101409.25;;;9.52;70.70
66703;BME280;60933;46.398;-63.798;2022-10-31T10:43:22;101410.97;;;9.51;71.22
66703;BME280;60933;46.398;-63.798;2022-10-31T10:46:19;101393.84;;;9.44;70.52
66703;BME280;60933;46.398;-63.798;2022-10-31T10:49:17;101411.03;;;9.48;70.59
66703;BME280;60933;46.398;-63.798;2022-10-31T10:51:55;101410.16;;;9.47;71.20
66703;BME280;60933;46.398;-63.798;2022-10-31T10:54:36;101413.59;;;9.46;70.80
66703;BME280;60933;46.398;-63.798;2022-10-31T10:57:22;101415.34;;;9.44;70.62
66703;BME280;60933;46.398;-63.798;2022-10-31T10:59:54;101405.88;;;9.48;70.14
66703;BME280;60933;46.398;-63.798;2022-10-31T11:02:24;101407.59;;;9.46;70.29
66703;BME280;60933;46.398;-63.798;2022-10-31T11:04:55;101406.69;;;9.52;70.34
66703;BME280;60933;46.398;-63.798;2022-10-31T11:07:23;101394.66;;;9.52;70.55
66703;BME280;60933;46.398;-63.798;2022-10-31T11:09:49;101402.38;;;9.52;70.23
66703;BME280;60933;46.398;-63.798;2022-10-31T11:12:35;101409.28;;;9.50;70.42
66703;BME280;60933;46.398;-63.798;2022-10-31T11:15:23;101410.97;;;9.51;69.48
66703;BME280;60933;46.398;-63.798;2022-10-31T11:17:52;101406.75;;;9.45;69.30
66703;BME280;60933;46.398;-63.798;2022-10-31T11:22:46;101420.38;;;9.57;68.70
66703;BME280;60933;46.398;-63.798;2022-10-31T11:25:26;101427.25;;;9.56;68.60
66703;BME280;60933;46.398;-63.798;2022-10-31T11:28:03;101423.81;;;9.57;68.50
66703;BME280;60933;46.398;-63.798;2022-10-31T11:30:30;101418.66;;;9.59;69.26
66703;BME280;60933;46.398;-63.798;2022-10-31T11:33:01;101427.22;;;9.61;68.63
66703;BME280;60933;46.398;-63.798;2022-10-31T11:35:27;101436.59;;;9.66;68.72
66703;BME280;60933;46.398;-63.798;2022-10-31T11:37:56;101428.88;;;9.66;69.05
66703;BME280;60933;46.398;-63.798;2022-10-31T11:40:26;101431.44;;;9.66;69.23
66703;BME280;60933;46.398;-63.798;2022-10-31T11:42:55;101436.59;;;9.66;69.21
66703;BME280;60933;46.398;-63.798;2022-10-31T11:45:31;101437.47;;;9.67;69.45
66703;BME280;60933;46.398;-63.798;2022-10-31T11:47:58;101442.63;;;9.65;68.97
66703;BME280;60933;46.398;-63.798;2022-10-31T11:52:54;101455.50;;;9.69;67.71
66703;BME280;60933;46.398;-63.798;2022-10-31T11:55:41;101443.44;;;9.71;67.94
66703;BME280;60933;46.398;-63.798;2022-10-31T11:58:24;101454.53;;;9.77;67.58
66703;BME280;60933;46.398;-63.798;2022-10-31T12:00:53;101448.53;;;9.80;67.69
66703;BME280;60933;46.398;-63.798;2022-10-31T12:05:57;101448.41;;;9.88;65.31
66703;BME280;60933;46.398;-63.798;2022-10-31T12:08:33;101454.41;;;9.91;65.79
66703;BME280;60933;46.398;-63.798;2022-10-31T12:11:17;101451.81;;;9.94;64.64
66703;BME280;60933;46.398;-63.798;2022-10-31T12:13:54;101455.19;;;10.00;65.56
66703;BME280;60933;46.398;-63.798;2022-10-31T12:21:52;101449.03;;;10.08;64.69
66703;BME280;60933;46.398;-63.798;2022-10-31T12:27:24;101461.03;;;10.14;65.03
66703;BME280;60933;46.398;-63.798;2022-10-31T12:35:27;101467.84;;;10.23;64.52
66703;BME280;60933;46.398;-63.798;2022-10-31T12:43:34;101462.50;;;10.35;64.39
66703;BME280;60933;46.398;-63.798;2022-10-31T12:46:03;101469.34;;;10.39;63.39
66703;BME280;60933;46.398;-63.798;2022-10-31T12:48:57;101476.16;;;10.47;64.32
66703;BME280;60933;46.398;-63.798;2022-10-31T12:57:27;101479.28;;;10.72;62.42
66703;BME280;60933;46.398;-63.798;2022-10-31T13:00:10;101474.91;;;10.77;61.84
66703;BME280;60933;46.398;-63.798;2022-10-31T13:05:36;101476.44;;;10.90;60.63
66703;BME280;60933;46.398;-63.798;2022-10-31T13:10:42;101471.16;;;10.97;58.26
66703;BME280;60933;46.398;-63.798;2022-10-31T13:13:13;101471.88;;;11.08;57.57
66703;BME280;60933;46.398;-63.798;2022-10-31T13:16:17;101464.78;;;11.19;56.97
66703;BME280;60933;46.398;-63.798;2022-10-31T13:24:25;101457.66;;;11.35;57.40
66703;BME280;60933;46.398;-63.798;2022-10-31T13:26:54;101456.75;;;11.38;57.01
66703;BME280;60933;46.398;-63.798;2022-10-31T13:29:49;101459.34;;;11.38;56.85
66703;BME280;60933;46.398;-63.798;2022-10-31T13:32:19;101435.38;;;11.28;57.43
66703;BME280;60933;46.398;-63.798;2022-10-31T13:34:54;101457.66;;;11.35;58.00
66703;BME280;60933;46.398;-63.798;2022-10-31T13:37:38;101467.09;;;11.38;57.78
66703;BME280;60933;46.398;-63.798;2022-10-31T13:40:35;101464.47;;;11.39;58.10
66703;BME280;60933;46.398;-63.798;2022-10-31T13:45:28;101460.91;;;11.48;57.26
66703;BME280;60933;46.398;-63.798;2022-10-31T13:47:59;101463.41;;;11.51;57.38
66703;BME280;60933;46.398;-63.798;2022-10-31T13:50:31;101459.88;;;11.57;57.54
66703;BME280;60933;46.398;-63.798;2022-10-31T13:53:22;101454.56;;;11.65;57.42
66703;BME280;60933;46.398;-63.798;2022-10-31T13:56:33;101462.16;;;11.74;57.56
66703;BME280;60933;46.398;-63.798;2022-10-31T13:58:35;101459.50;;;11.79;57.43
66703;BME280;60933;46.398;-63.798;2022-10-31T14:03:38;101465.22;;;11.96;57.33
66703;BME280;60933;46.398;-63.798;2022-10-31T14:06:07;101446.88;;;12.10;55.36
66703;BME280;60933;46.398;-63.798;2022-10-31T14:08:36;101450.88;;;12.25;55.10
66703;BME280;60933;46.398;-63.798;2022-10-31T14:11:03;101451.38;;;12.43;54.57
66703;BME280;60933;46.398;-63.798;2022-10-31T14:13:34;101450.22;;;12.56;54.32
66703;BME280;60933;46.398;-63.798;2022-10-31T14:16:04;101452.66;;;12.64;54.42
66703;BME280;60933;46.398;-63.798;2022-10-31T14:18:34;101454.41;;;12.62;53.84
66703;BME280;60933;46.398;-63.798;2022-10-31T14:21:57;101448.41;;;12.60;53.65
66703;BME280;60933;46.398;-63.798;2022-10-31T14:23:59;101438.09;;;12.58;55.05
66703;BME280;60933;46.398;-63.798;2022-10-31T14:28:56;101431.25;;;12.54;54.82
66703;BME280;60933;46.398;-63.798;2022-10-31T14:31:41;101438.34;;;12.47;54.74
66703;BME280;60933;46.398;-63.798;2022-10-31T14:34:28;101434.09;;;12.43;54.21
66703;BME280;60933;46.398;-63.798;2022-10-31T14:51:02;101440.72;;;12.14;58.86
66703;BME280;60933;46.398;-63.798;2022-10-31T14:53:48;101449.38;;;12.13;59.57